createdAt,value
2017-06-21T00:02:17.862Z,13.20
2017-06-21T00:04:45.350Z,13.10
2017-06-21T00:07:12.811Z,13.10
2017-06-21T00:09:40.272Z,13.10
2017-06-21T00:12:07.725Z,13.10
2017-06-21T00:14:35.302Z,13.10
2017-06-21T00:17:03.513Z,13.10
2017-06-21T00:19:30.946Z,13.00
2017-06-21T00:21:59.175Z,13.00
2017-06-21T00:24:26.605Z,13.00
2017-06-21T00:26:54.198Z,13.00
2017-06-21T00:29:21.668Z,13.00
2017-06-21T00:31:49.101Z,12.90
2017-06-21T00:34:16.534Z,12.80
2017-06-21T00:36:44.042Z,12.80
2017-06-21T00:39:11.584Z,12.80
2017-06-21T00:41:39.022Z,12.70
2017-06-21T00:44:06.478Z,12.70
2017-06-21T00:46:34.125Z,12.70
2017-06-21T00:49:01.603Z,12.70
2017-06-21T00:51:29.066Z,12.70
2017-06-21T00:53:56.515Z,12.60
2017-06-21T00:56:23.969Z,12.60
2017-06-21T00:58:51.426Z,12.60
2017-06-21T01:01:19.010Z,12.60
2017-06-21T01:03:46.478Z,12.50
2017-06-21T01:06:14.710Z,12.50
2017-06-21T01:08:42.158Z,12.40
2017-06-21T01:11:09.607Z,12.40
2017-06-21T01:13:37.061Z,12.40
2017-06-21T01:16:04.535Z,12.40
2017-06-21T01:18:31.990Z,12.40
2017-06-21T01:20:59.432Z,12.40
2017-06-21T01:23:26.942Z,12.40
2017-06-21T01:25:55.196Z,12.40
2017-06-21T01:28:22.642Z,12.30
2017-06-21T01:30:50.199Z,12.40
2017-06-21T01:33:17.658Z,12.40
2017-06-21T01:35:45.120Z,12.40
2017-06-21T01:38:12.567Z,12.40
2017-06-21T01:40:40.018Z,12.40
2017-06-21T01:43:07.490Z,12.40
2017-06-21T01:45:34.934Z,12.30
2017-06-21T01:48:02.420Z,12.30
2017-06-21T01:50:29.950Z,12.30
2017-06-21T01:52:57.589Z,12.30
2017-06-21T01:55:25.044Z,12.30
2017-06-21T01:57:52.468Z,12.40
2017-06-21T02:00:20.718Z,12.40
2017-06-21T02:02:48.175Z,12.30
2017-06-21T02:05:15.730Z,12.30
2017-06-21T02:07:43.167Z,12.30
2017-06-21T02:10:10.599Z,12.30
2017-06-21T02:12:38.081Z,12.30
2017-06-21T02:15:05.574Z,12.20
2017-06-21T02:17:32.987Z,12.10
2017-06-21T02:20:00.456Z,12.10
2017-06-21T02:22:27.894Z,12.10
2017-06-21T02:24:55.360Z,12.10
2017-06-21T02:27:22.817Z,12.10
2017-06-21T02:29:51.371Z,12.10
2017-06-21T02:32:18.955Z,12.00
2017-06-21T02:34:46.390Z,12.00
2017-06-21T02:37:13.871Z,12.00
2017-06-21T02:39:41.327Z,12.00
2017-06-21T02:42:08.789Z,12.10
2017-06-21T02:44:36.242Z,12.00
2017-06-21T02:47:03.798Z,12.00
2017-06-21T02:49:31.264Z,12.00
2017-06-21T02:51:58.706Z,12.00
2017-06-21T02:54:26.167Z,11.90
2017-06-21T02:56:53.618Z,12.00
2017-06-21T02:59:21.079Z,12.00
2017-06-21T03:01:48.758Z,11.90
2017-06-21T03:04:16.337Z,11.90
2017-06-21T03:06:43.871Z,11.90
2017-06-21T03:09:11.446Z,11.90
2017-06-21T03:11:38.878Z,11.90
2017-06-21T03:14:06.346Z,12.00
2017-06-21T03:16:33.884Z,11.90
2017-06-21T03:19:01.340Z,11.90
2017-06-21T03:21:29.010Z,11.90
2017-06-21T03:23:56.468Z,11.90
2017-06-21T03:26:23.935Z,11.90
2017-06-21T03:28:51.508Z,12.00
2017-06-21T03:31:19.116Z,12.10
2017-06-21T03:33:46.526Z,12.20
2017-06-21T03:36:14.772Z,12.30
2017-06-21T03:38:42.319Z,12.30
2017-06-21T03:41:09.794Z,12.40
2017-06-21T03:43:37.222Z,12.30
2017-06-21T03:46:04.697Z,12.30
2017-06-21T03:48:32.150Z,12.20
2017-06-21T03:50:59.595Z,12.30
2017-06-21T03:53:27.067Z,12.20
2017-06-21T03:55:54.524Z,12.30
2017-06-21T03:58:21.980Z,12.30
2017-06-21T04:00:49.510Z,12.30
2017-06-21T04:03:16.942Z,12.40
2017-06-21T04:05:44.388Z,12.50
2017-06-21T04:08:11.822Z,12.60
2017-06-21T04:10:40.166Z,12.80
2017-06-21T04:13:07.629Z,12.70
2017-06-21T04:15:35.069Z,12.90
2017-06-21T04:18:02.530Z,13.20
2017-06-21T04:20:30.002Z,13.40
2017-06-21T04:22:57.651Z,13.50
2017-06-21T04:25:25.326Z,13.70
2017-06-21T04:27:52.803Z,13.60
2017-06-21T04:30:20.226Z,13.50
2017-06-21T04:32:47.678Z,13.50
2017-06-21T04:35:15.151Z,13.70
2017-06-21T04:37:42.624Z,13.80
2017-06-21T04:40:10.086Z,14.00
2017-06-21T04:42:37.514Z,13.90
2017-06-21T04:45:05.014Z,13.70
2017-06-21T04:47:33.256Z,13.60
2017-06-21T04:50:00.695Z,13.50
2017-06-21T04:52:28.183Z,13.50
2017-06-21T04:54:55.621Z,13.50
2017-06-21T04:57:23.045Z,13.60
2017-06-21T04:59:50.542Z,13.70
2017-06-21T05:02:17.989Z,13.70
2017-06-21T05:04:45.453Z,13.90
2017-06-21T05:07:12.878Z,14.10
2017-06-21T05:09:40.459Z,14.40
2017-06-21T05:12:07.951Z,14.60
2017-06-21T05:14:35.479Z,14.50
2017-06-21T05:17:02.951Z,14.40
2017-06-21T05:19:30.431Z,14.30
2017-06-21T05:21:58.680Z,14.40
2017-06-21T05:24:26.127Z,14.40
2017-06-21T05:26:53.600Z,14.50
2017-06-21T05:29:21.167Z,14.50
2017-06-21T05:31:48.691Z,14.50
2017-06-21T05:34:16.131Z,14.40
2017-06-21T05:36:43.622Z,14.40
2017-06-21T05:39:11.059Z,14.60
2017-06-21T05:41:38.641Z,14.60
2017-06-21T05:44:06.088Z,14.60
2017-06-21T05:46:33.648Z,14.80
2017-06-21T05:49:01.176Z,15.00
2017-06-21T05:51:28.614Z,15.10
2017-06-21T05:53:56.190Z,15.20
2017-06-21T05:56:23.678Z,15.10
2017-06-21T05:58:51.320Z,15.20
2017-06-21T06:01:18.743Z,15.30
2017-06-21T06:03:46.269Z,15.30
2017-06-21T06:06:13.814Z,15.30
2017-06-21T06:08:41.443Z,15.30
2017-06-21T06:11:08.911Z,15.30
2017-06-21T06:13:36.350Z,15.30
2017-06-21T06:16:03.975Z,15.40
2017-06-21T06:18:32.195Z,15.00
2017-06-21T06:20:59.623Z,15.00
2017-06-21T06:23:27.086Z,15.10
2017-06-21T06:25:54.711Z,15.00
2017-06-21T06:28:22.142Z,14.90
2017-06-21T06:30:49.603Z,14.90
2017-06-21T06:33:17.045Z,15.00
2017-06-21T06:35:44.559Z,15.10
2017-06-21T06:38:12.972Z,15.30
2017-06-21T06:40:40.422Z,15.20
2017-06-21T06:43:07.991Z,15.40
2017-06-21T06:45:35.465Z,15.40
2017-06-21T06:48:02.931Z,15.30
2017-06-21T06:50:30.408Z,15.40
2017-06-21T06:52:57.839Z,15.40
2017-06-21T06:55:25.371Z,15.40
2017-06-21T06:57:52.859Z,15.50
2017-06-21T07:00:20.309Z,15.60
2017-06-21T07:02:47.781Z,15.70
2017-06-21T07:05:15.224Z,15.90
2017-06-21T07:07:42.753Z,16.00
2017-06-21T07:10:10.209Z,16.10
2017-06-21T07:12:37.769Z,16.00
2017-06-21T07:15:05.286Z,16.00
2017-06-21T07:17:33.498Z,16.20
2017-06-21T07:20:01.001Z,16.20
2017-06-21T07:22:28.563Z,16.30
2017-06-21T07:24:56.107Z,16.40
2017-06-21T07:27:23.579Z,16.30
2017-06-21T07:29:51.039Z,16.20
2017-06-21T07:32:19.234Z,16.00
2017-06-21T07:34:46.671Z,15.90
2017-06-21T07:37:14.895Z,16.00
2017-06-21T07:39:42.366Z,16.00
2017-06-21T07:42:09.822Z,16.10
2017-06-21T07:44:37.309Z,16.20
2017-06-21T07:47:04.762Z,16.40
2017-06-21T07:49:32.294Z,16.40
2017-06-21T07:51:59.937Z,16.60
2017-06-21T07:54:27.371Z,16.50
2017-06-21T07:56:54.949Z,16.80
2017-06-21T07:59:22.376Z,16.70
2017-06-21T08:01:49.965Z,16.50
2017-06-21T08:04:17.420Z,16.30
2017-06-21T08:06:44.860Z,16.30
2017-06-21T08:09:12.434Z,16.40
2017-06-21T08:11:39.919Z,16.40
2017-06-21T08:14:07.400Z,16.50
2017-06-21T08:16:34.951Z,16.40
2017-06-21T08:19:02.487Z,16.30
2017-06-21T08:21:29.940Z,16.50
2017-06-21T08:23:58.175Z,16.60
2017-06-21T08:26:26.383Z,16.70
2017-06-21T08:28:53.926Z,16.70
2017-06-21T08:31:21.352Z,16.80
2017-06-21T08:33:48.899Z,16.90
2017-06-21T08:36:16.427Z,16.90
2017-06-21T08:38:43.879Z,16.90
2017-06-21T08:41:11.423Z,16.80
2017-06-21T08:43:38.882Z,16.60
2017-06-21T08:46:06.331Z,16.70
2017-06-21T08:48:33.770Z,16.80
2017-06-21T08:51:01.255Z,16.90
2017-06-21T08:53:29.471Z,17.00
2017-06-21T08:55:56.967Z,16.90
2017-06-21T08:58:24.500Z,17.30
2017-06-21T09:00:51.968Z,17.40
2017-06-21T09:03:19.399Z,17.50
2017-06-21T09:05:46.900Z,17.70
2017-06-21T09:08:14.442Z,17.90
2017-06-21T09:10:41.911Z,18.10
2017-06-21T09:13:09.344Z,18.30
2017-06-21T09:15:36.849Z,18.10
2017-06-21T09:18:05.074Z,17.60
2017-06-21T09:20:32.609Z,17.60
2017-06-21T09:23:00.715Z,17.60
2017-06-21T09:25:28.175Z,17.60
2017-06-21T09:27:55.647Z,17.60
2017-06-21T09:30:23.894Z,17.80
2017-06-21T09:32:51.342Z,17.80
2017-06-21T09:35:18.795Z,18.10
2017-06-21T09:37:46.250Z,18.10
2017-06-21T09:40:14.258Z,18.00
2017-06-21T09:42:41.974Z,17.90
2017-06-21T09:45:09.461Z,17.80
2017-06-21T09:47:36.948Z,17.80
2017-06-21T09:50:05.147Z,17.90
2017-06-21T09:52:32.618Z,17.90
2017-06-21T09:55:00.189Z,18.10
2017-06-21T09:57:27.643Z,18.10
2017-06-21T09:59:55.071Z,18.20
2017-06-21T10:02:22.507Z,18.20
2017-06-21T10:04:49.946Z,18.10
2017-06-21T10:07:17.406Z,18.30
2017-06-21T10:09:44.847Z,18.40
2017-06-21T10:12:12.303Z,18.50
2017-06-21T10:14:40.526Z,18.20
2017-06-21T10:17:09.118Z,18.20
2017-06-21T10:19:36.578Z,18.20
2017-06-21T10:22:04.103Z,18.40
2017-06-21T10:24:31.559Z,18.60
2017-06-21T10:26:59.122Z,18.90
2017-06-21T10:29:26.554Z,19.20
2017-06-21T10:31:53.991Z,19.40
2017-06-21T10:34:21.428Z,19.30
2017-06-21T10:36:48.914Z,19.30
2017-06-21T10:39:16.391Z,19.40
2017-06-21T10:41:44.005Z,19.00
2017-06-21T10:44:11.515Z,18.70
2017-06-21T10:46:39.755Z,18.60
2017-06-21T10:49:07.228Z,18.50
2017-06-21T10:51:34.690Z,18.90
2017-06-21T10:54:02.312Z,18.80
2017-06-21T10:56:29.790Z,18.90
2017-06-21T10:58:57.260Z,19.10
2017-06-21T11:01:24.695Z,19.20
2017-06-21T11:03:52.215Z,19.20
2017-06-21T11:06:19.758Z,19.00
2017-06-21T11:08:48.100Z,18.70
2017-06-21T11:11:15.550Z,18.70
2017-06-21T11:13:43.031Z,18.80
2017-06-21T11:16:10.544Z,19.00
2017-06-21T11:18:38.019Z,19.00
2017-06-21T11:21:05.475Z,18.90
2017-06-21T11:23:32.971Z,18.50
2017-06-21T11:26:01.174Z,18.90
2017-06-21T11:28:28.774Z,18.80
2017-06-21T11:30:56.275Z,19.10
2017-06-21T11:33:23.891Z,19.20
2017-06-21T11:35:51.363Z,19.20
2017-06-21T11:38:19.495Z,19.00
2017-06-21T11:40:47.667Z,19.10
2017-06-21T11:43:15.155Z,18.90
2017-06-21T11:45:42.701Z,18.90
2017-06-21T11:48:10.179Z,19.00
2017-06-21T11:50:37.615Z,19.20
2017-06-21T11:53:05.185Z,19.30
2017-06-21T11:55:32.647Z,19.20
2017-06-21T11:58:00.108Z,19.30
2017-06-21T12:00:27.541Z,19.10
2017-06-21T12:02:55.028Z,19.10
2017-06-21T12:05:22.826Z,19.10
2017-06-21T12:07:51.077Z,19.40
2017-06-21T12:10:19.334Z,19.50
2017-06-21T12:12:46.886Z,19.50
2017-06-21T12:15:14.345Z,19.50
2017-06-21T12:17:41.799Z,19.40
2017-06-21T12:20:09.459Z,19.40
2017-06-21T12:22:37.007Z,19.30
2017-06-21T12:25:04.458Z,19.50
2017-06-21T12:27:31.914Z,19.50
2017-06-21T12:29:59.463Z,19.60
2017-06-21T12:32:26.929Z,19.60
2017-06-21T12:34:54.362Z,19.60
2017-06-21T12:37:21.962Z,19.80
2017-06-21T12:42:24.005Z,20.40
2017-06-21T12:44:51.530Z,20.40
2017-06-21T12:47:19.758Z,20.00
2017-06-21T12:49:47.231Z,20.00
2017-06-21T12:52:14.658Z,20.00
2017-06-21T12:54:42.101Z,20.00
2017-06-21T12:57:09.809Z,20.00
2017-06-21T12:59:37.343Z,20.20
2017-06-21T13:02:04.934Z,20.40
2017-06-21T13:04:32.483Z,20.40
2017-06-21T13:07:00.113Z,20.30
2017-06-21T13:09:27.618Z,20.30
2017-06-21T13:11:55.855Z,20.70
2017-06-21T13:14:23.291Z,20.60
2017-06-21T13:16:50.769Z,20.60
2017-06-21T13:19:18.214Z,20.50
2017-06-21T13:21:45.681Z,20.40
2017-06-21T13:24:13.125Z,20.60
2017-06-21T13:26:40.566Z,20.60
2017-06-21T13:29:08.029Z,20.80
2017-06-21T13:31:35.530Z,20.70
2017-06-21T13:34:03.144Z,20.70
2017-06-21T13:36:30.566Z,20.90
2017-06-21T13:38:58.907Z,20.70
2017-06-21T13:41:26.405Z,20.70
2017-06-21T13:43:53.907Z,20.60
2017-06-21T13:46:21.473Z,20.70
2017-06-21T13:48:49.010Z,21.00
2017-06-21T13:51:16.525Z,20.90
2017-06-21T13:53:43.982Z,21.10
2017-06-21T13:56:12.232Z,21.50
2017-06-21T13:58:39.663Z,21.40
2017-06-21T14:01:07.148Z,21.30
2017-06-21T14:03:34.587Z,21.40
2017-06-21T14:06:02.139Z,21.40
2017-06-21T14:08:29.650Z,21.40
2017-06-21T14:10:57.215Z,21.40
2017-06-21T14:13:24.852Z,21.30
2017-06-21T14:15:52.386Z,21.50
2017-06-21T14:18:19.822Z,21.80
2017-06-21T14:20:47.307Z,21.70
2017-06-21T14:23:14.753Z,21.60
2017-06-21T14:25:42.186Z,21.60
2017-06-21T14:28:09.658Z,21.60
2017-06-21T14:30:37.127Z,21.60
2017-06-21T14:33:04.599Z,21.60
2017-06-21T14:35:32.032Z,21.60
2017-06-21T14:37:59.475Z,21.50
2017-06-21T14:40:27.021Z,21.40
2017-06-21T14:42:54.446Z,21.40
2017-06-21T14:45:21.939Z,21.50
2017-06-21T14:47:49.370Z,21.60
2017-06-21T14:50:16.845Z,21.80
2017-06-21T14:52:44.262Z,22.00
2017-06-21T14:55:12.499Z,21.90
2017-06-21T14:57:39.979Z,21.80
2017-06-21T15:00:07.427Z,21.50
2017-06-21T15:02:34.946Z,21.70
2017-06-21T15:05:02.376Z,22.00
2017-06-21T15:07:29.830Z,22.00
2017-06-21T15:09:57.417Z,22.10
2017-06-21T15:12:25.334Z,22.30
2017-06-21T15:14:54.479Z,22.40
2017-06-21T15:17:22.039Z,22.30
2017-06-21T15:19:49.457Z,22.70
2017-06-21T15:22:17.664Z,24.60
2017-06-21T15:24:45.125Z,24.50
2017-06-21T15:27:12.603Z,25.20
2017-06-21T15:29:40.062Z,26.30
2017-06-21T15:32:07.543Z,25.10
2017-06-21T15:34:35.778Z,24.50
2017-06-21T15:37:03.326Z,24.50
2017-06-21T15:39:30.831Z,24.50
2017-06-21T15:41:58.342Z,24.50
2017-06-21T15:44:25.930Z,25.00
2017-06-21T15:46:53.421Z,24.80
2017-06-21T15:49:21.656Z,25.60
2017-06-21T15:51:49.096Z,25.50
2017-06-21T15:54:16.562Z,24.80
2017-06-21T15:56:43.988Z,24.40
2017-06-21T15:59:11.651Z,25.00
2017-06-21T16:01:39.063Z,24.70
2017-06-21T16:04:06.631Z,24.20
2017-06-21T16:06:34.155Z,23.40
2017-06-21T16:09:01.693Z,23.20
2017-06-21T16:11:29.104Z,23.30
2017-06-21T16:13:57.344Z,24.10
2017-06-21T16:16:24.801Z,24.00
2017-06-21T16:18:52.437Z,24.70
2017-06-21T16:21:19.952Z,25.00
2017-06-21T16:23:47.494Z,24.70
2017-06-21T16:26:14.928Z,25.40
2017-06-21T16:28:42.571Z,26.00
2017-06-21T16:31:10.126Z,25.80
2017-06-21T16:33:37.573Z,25.90
2017-06-21T16:36:05.015Z,25.70
2017-06-21T16:38:32.465Z,25.50
2017-06-21T16:41:00.753Z,25.60
2017-06-21T16:43:29.010Z,25.50
2017-06-21T16:45:56.527Z,25.50
2017-06-21T16:48:23.963Z,25.30
2017-06-21T16:50:51.397Z,25.30
2017-06-21T16:53:18.850Z,25.70
2017-06-21T16:55:46.386Z,26.00
2017-06-21T16:58:14.636Z,26.40
2017-06-21T17:00:42.080Z,26.40
2017-06-21T17:03:09.619Z,26.40
2017-06-21T17:05:37.086Z,26.10
2017-06-21T17:08:04.552Z,26.20
2017-06-21T17:10:32.020Z,26.20
2017-06-21T17:12:59.635Z,26.30
2017-06-21T17:15:27.075Z,26.20
2017-06-21T17:17:55.306Z,26.20
2017-06-21T17:20:22.751Z,26.10
2017-06-21T17:22:50.213Z,26.00
2017-06-21T17:25:17.700Z,25.50
2017-06-21T17:27:45.628Z,25.30
2017-06-21T17:30:13.073Z,25.20
2017-06-21T17:32:40.507Z,25.80
2017-06-21T17:35:07.981Z,26.00
2017-06-21T17:37:35.462Z,26.40
2017-06-21T17:40:02.918Z,25.60
2017-06-21T17:42:30.355Z,25.40
2017-06-21T17:44:57.898Z,25.10
2017-06-21T17:47:25.328Z,24.60
2017-06-21T17:49:53.703Z,24.70
2017-06-21T17:52:21.934Z,23.10
2017-06-21T17:54:49.406Z,23.00
2017-06-21T17:57:16.947Z,23.10
2017-06-21T17:59:44.493Z,23.20
2017-06-21T18:02:11.994Z,23.20
2017-06-21T18:04:39.423Z,23.20
2017-06-21T18:07:06.891Z,23.20
2017-06-21T18:09:34.338Z,23.00
2017-06-21T18:12:01.878Z,23.00
2017-06-21T18:14:29.311Z,23.00
2017-06-21T18:16:56.786Z,22.90
2017-06-21T18:19:24.288Z,23.00
2017-06-21T18:21:51.734Z,23.10
2017-06-21T18:24:19.190Z,22.80
2017-06-21T18:26:46.622Z,22.60
2017-06-21T18:29:14.331Z,22.50
2017-06-21T18:31:41.854Z,22.40
2017-06-21T18:34:09.389Z,22.30
2017-06-21T18:36:36.831Z,21.80
2017-06-21T18:39:04.329Z,21.80
2017-06-21T18:41:31.883Z,21.50
2017-06-21T18:43:59.340Z,21.30
2017-06-21T18:46:26.831Z,21.00
2017-06-21T18:48:54.302Z,21.00
2017-06-21T18:51:22.506Z,20.80
2017-06-21T18:53:50.005Z,20.70
2017-06-21T18:56:17.573Z,20.70
2017-06-21T18:58:45.044Z,20.60
2017-06-21T19:01:13.458Z,20.50
2017-06-21T19:03:41.050Z,20.40
2017-06-21T19:06:08.496Z,20.40
2017-06-21T19:08:35.932Z,20.30
2017-06-21T19:11:03.431Z,20.30
2017-06-21T19:13:30.862Z,20.20
2017-06-21T19:15:59.320Z,20.10
2017-06-21T19:18:26.811Z,20.00
2017-06-21T19:20:54.284Z,19.90
2017-06-21T19:23:21.731Z,19.80
2017-06-21T19:25:49.270Z,19.70
2017-06-21T19:28:16.699Z,19.70
2017-06-21T19:30:44.289Z,19.70
2017-06-21T19:33:11.767Z,19.60
2017-06-21T19:35:39.230Z,19.60
2017-06-21T19:38:06.674Z,19.60
2017-06-21T19:40:34.131Z,19.60
2017-06-21T19:43:01.676Z,19.80
2017-06-21T19:45:29.129Z,19.80
2017-06-21T19:47:56.592Z,19.60
2017-06-21T19:50:24.018Z,19.50
2017-06-21T19:52:51.470Z,19.50
2017-06-21T19:55:18.908Z,19.60
2017-06-21T19:57:47.331Z,19.60
2017-06-21T20:00:14.783Z,19.60
2017-06-21T20:02:42.242Z,19.60
2017-06-21T20:05:09.691Z,19.40
2017-06-21T20:07:37.147Z,19.30
2017-06-21T20:10:04.591Z,19.20
2017-06-21T20:12:32.064Z,19.10
2017-06-21T20:14:59.639Z,19.00
2017-06-21T20:17:27.111Z,19.00
2017-06-21T20:19:54.531Z,18.90
2017-06-21T20:22:22.094Z,18.90
2017-06-21T20:24:49.660Z,18.90
2017-06-21T20:27:17.134Z,19.10
2017-06-21T20:29:44.573Z,19.10
2017-06-21T20:32:12.056Z,19.20
2017-06-21T20:34:39.508Z,19.20
2017-06-21T20:37:06.958Z,19.20
2017-06-21T20:39:34.551Z,19.20
2017-06-21T20:42:02.071Z,19.30
2017-06-21T20:44:29.499Z,19.20
2017-06-21T20:46:56.930Z,19.00
2017-06-21T20:49:24.453Z,18.80
2017-06-21T20:51:51.863Z,18.80
2017-06-21T20:54:19.332Z,18.90
2017-06-21T20:56:46.770Z,18.80
2017-06-21T20:59:14.226Z,18.70
2017-06-21T21:01:41.707Z,18.60
2017-06-21T21:04:09.174Z,18.60
2017-06-21T21:06:36.715Z,18.60
2017-06-21T21:09:04.163Z,18.70
2017-06-21T21:11:31.630Z,18.70
2017-06-21T21:13:59.084Z,18.60
2017-06-21T21:16:26.567Z,18.60
2017-06-21T21:18:53.998Z,18.60
2017-06-21T21:21:21.453Z,18.60
2017-06-21T21:23:48.941Z,18.50
2017-06-21T21:26:16.468Z,18.50
2017-06-21T21:28:43.923Z,18.40
2017-06-21T21:31:11.374Z,18.40
2017-06-21T21:33:38.843Z,18.40
2017-06-21T21:36:06.286Z,18.40
2017-06-21T21:38:33.846Z,18.30
2017-06-21T21:41:01.434Z,18.30
2017-06-21T21:43:28.862Z,18.40
2017-06-21T21:45:56.299Z,18.20
2017-06-21T21:48:23.829Z,18.10
2017-06-21T21:50:51.280Z,18.00
2017-06-21T21:53:19.507Z,17.70
2017-06-21T21:55:46.952Z,17.60
2017-06-21T21:58:14.450Z,17.70
2017-06-21T22:00:41.875Z,17.70
2017-06-21T22:03:09.393Z,17.80
2017-06-21T22:05:36.852Z,17.90
2017-06-21T22:08:04.346Z,17.90
2017-06-21T22:10:31.806Z,17.90
2017-06-21T22:12:59.290Z,18.00
2017-06-21T22:15:26.816Z,17.90
2017-06-21T22:17:54.262Z,17.90
2017-06-21T22:20:21.738Z,17.90
2017-06-21T22:22:49.296Z,17.90
2017-06-21T22:25:16.744Z,17.80
2017-06-21T22:27:44.691Z,17.70
2017-06-21T22:30:12.180Z,17.70
2017-06-21T22:32:39.631Z,17.60
2017-06-21T22:35:07.067Z,17.50
2017-06-21T22:37:34.521Z,17.40
2017-06-21T22:40:01.965Z,17.40
2017-06-21T22:42:29.390Z,17.40
2017-06-21T22:44:57.620Z,17.40
2017-06-21T22:47:25.149Z,17.30
2017-06-21T22:49:52.574Z,17.40
2017-06-21T22:52:20.819Z,17.30
2017-06-21T22:54:48.339Z,17.20
2017-06-21T22:57:15.775Z,17.30
2017-06-21T22:59:43.982Z,17.40
2017-06-21T23:02:11.491Z,17.30
2017-06-21T23:04:39.043Z,17.40
2017-06-21T23:07:06.602Z,17.40
2017-06-21T23:09:34.034Z,17.40
2017-06-21T23:12:01.479Z,17.30
2017-06-21T23:14:28.925Z,17.30
2017-06-21T23:16:56.400Z,17.30
2017-06-21T23:19:23.855Z,17.30
2017-06-21T23:21:51.314Z,17.30
2017-06-21T23:24:18.782Z,17.30
2017-06-21T23:26:46.226Z,17.30
2017-06-21T23:29:13.678Z,17.30
2017-06-21T23:31:41.143Z,17.30
2017-06-21T23:34:08.694Z,17.20
2017-06-21T23:36:36.127Z,17.20
2017-06-21T23:39:03.571Z,17.20
2017-06-21T23:41:31.026Z,17.20
2017-06-21T23:43:58.459Z,17.30
2017-06-21T23:46:26.659Z,17.20
2017-06-21T23:48:54.170Z,17.20
2017-06-21T23:51:21.714Z,17.20
2017-06-21T23:53:49.192Z,17.10
2017-06-21T23:56:16.719Z,17.10
2017-06-21T23:58:44.170Z,17.20
